Etusivu
METAR-TAF:

METAR-TAF

Lentoasemat :

Yellowknifen lentoasema

Yellowknife, Luoteisterritoriot, Kanada

Leveyspiiri: 62-28N, Pituuspiiri: 114-27W, korkeus merenpinnasta: 205 m

Tämänhetkinen sää

Tämä raportti tehtiin 1 tunti ja 7 minuuttia sitten, kello 08.00 UTC
Tuuli 7 kn idästä
Lämpötila 12°C
Kosteus 82%
Ilmanpaine 1011 hPa
Näkyvyys: 24.1 km
Muutamia pilviä 11000 ft:n korkeudessa

METAR: CYZF 140800Z 10007KT 15SM FEW110 12/09 A2985 RMK AC1 SLP118

Aika: 03:07 (09:07 UTC)

Sääennuste

Tämä raportti tehtiin 3 tuntia ja 28 minuuttia sitten, kello 05.39 UTC
Ennuste voimassa 14. päivästä klo 06 UTC - 15. päivään klo 06 UTC
Tuuli 10 kn idästä/kaakosta
Näkyvyys: 10 km
Hajanaisia pilviä 10000 ft:n korkeudessa
Tulossa
14. päivästä klo 14 UTC - 14. päivään klo 16 UTC
Tuuli 10 kn etelästä

TAF: CYZF 140539Z 1406/1506 12010KT P6SM SCT100 BECMG 1414/1416 18010KT RMK NXT FCST BY 141200Z

Säähavainnot ja -ennusteet yli 4000 lentoasemalta (METAR- ja TAF-raportit).

Käytössä olevat sääasemat on merkitty karttaan keltaisilla ja punaisilla pisteillä.

Aseta hiiri pisteen päälle nähdäksesi sääaseman nimen.

Klikkaa sitten nähdäksesi säähavainnot ja -ennusteet.

Kartan vaihtaminen: klikkaa mustalla rastilla varustettuja vihreitä pisteitä, niin voit zoomata sisään; viivalla varustettua vihreää pistettä, niin voit zoomata ulos tai vihreitä nuolia, niin pääset viereisille kartoille.


METAR-TAF: